Terminal Aerodrome Forecast
Issued by NWS

Home | Current Version | Previous Version | Text Only | Print | Product List | Glossary On
Versions: 1 2 3 4 5 6 7 8 9 10 11 12 13 14 15
335
FTUS41 KCAR 011135
TAFBHB
TAF
KBHB 011135Z 0112/0212 VRB03KT P6SM BKN200
     FM011600 18010KT P6SM BKN080
     FM012100 18010KT P6SM OVC040
     FM020000 18008KT P6SM VCSH OVC040
     FM020300 15008KT P6SM VCSH OVC030
     FM020700 15008KT P6SM -SHRA OVC020
     FM021000 14008KT 5SM -RA BR OVC015=

USA.gov is the U.S. government's official web portal to all federal, state and local government web resources and services.